createdAt,value
2022-11-13T00:00:19.120Z,972.98
2022-11-13T00:01:19.049Z,972.94
2022-11-13T00:02:19.000Z,973.00
2022-11-13T00:03:18.915Z,972.94
2022-11-13T00:04:18.845Z,972.93
2022-11-13T00:05:18.802Z,972.92
2022-11-13T00:06:18.716Z,972.90
2022-11-13T00:07:18.699Z,972.92
2022-11-13T00:08:18.573Z,972.93
2022-11-13T00:09:18.503Z,972.85
2022-11-13T00:10:18.434Z,972.87
2022-11-13T00:11:18.522Z,972.85
2022-11-13T00:12:18.380Z,972.84
2022-11-13T00:13:18.228Z,972.80
2022-11-13T00:14:18.161Z,972.82
2022-11-13T00:15:18.096Z,972.80
2022-11-13T00:16:18.024Z,972.75
2022-11-13T00:17:17.961Z,972.79
2022-11-13T00:18:17.887Z,972.80
2022-11-13T00:19:17.822Z,972.73
2022-11-13T00:20:17.750Z,972.78
2022-11-13T00:21:17.681Z,972.74
2022-11-13T00:22:17.611Z,972.74
2022-11-13T00:23:17.544Z,972.75
2022-11-13T00:24:17.485Z,972.70
2022-11-13T00:25:17.403Z,972.70
2022-11-13T00:26:17.344Z,972.65
2022-11-13T00:27:17.271Z,972.61
2022-11-13T00:28:17.286Z,972.60
2022-11-13T00:29:17.136Z,972.60
2022-11-13T00:30:19.441Z,972.62
2022-11-13T00:31:16.995Z,972.56
2022-11-13T00:32:16.927Z,972.56
2022-11-13T00:33:38.284Z,972.59
2022-11-13T00:34:45.884Z,972.60
2022-11-13T00:35:16.720Z,972.59
2022-11-13T00:36:16.653Z,972.56
2022-11-13T00:37:16.581Z,972.56
2022-11-13T00:38:16.517Z,972.54
2022-11-13T00:39:16.442Z,972.55
2022-11-13T00:40:16.378Z,972.56
2022-11-13T00:41:16.309Z,972.52
2022-11-13T00:42:16.242Z,972.49
2022-11-13T00:43:16.171Z,972.51
2022-11-13T00:44:16.190Z,972.48
2022-11-13T00:45:16.031Z,972.48
2022-11-13T00:46:15.968Z,972.50
2022-11-13T00:47:15.899Z,972.48
2022-11-13T00:48:15.832Z,972.50
2022-11-13T00:49:15.758Z,972.46
2022-11-13T00:50:15.690Z,972.46
2022-11-13T00:51:15.620Z,972.48
2022-11-13T00:52:15.555Z,972.45
2022-11-13T00:53:18.186Z,972.44
2022-11-13T00:54:15.423Z,972.45
2022-11-13T00:55:15.359Z,972.44
2022-11-13T00:56:15.281Z,972.42
2022-11-13T00:57:15.208Z,972.39
2022-11-13T00:58:15.141Z,972.39
2022-11-13T00:59:15.071Z,972.38
2022-11-13T01:00:15.090Z,972.41
2022-11-13T01:01:14.959Z,972.34
2022-11-13T01:02:14.869Z,972.38
2022-11-13T01:03:14.796Z,972.35
2022-11-13T01:04:14.733Z,972.32
2022-11-13T01:05:14.664Z,972.28
2022-11-13T01:06:14.599Z,972.33
2022-11-13T01:07:14.561Z,972.30
2022-11-13T01:08:14.463Z,972.33
2022-11-13T01:09:14.389Z,972.30
2022-11-13T01:10:14.320Z,972.31
2022-11-13T01:11:14.265Z,972.27
2022-11-13T01:12:14.181Z,972.23
2022-11-13T01:13:14.116Z,972.26
2022-11-13T01:14:14.046Z,972.21
2022-11-13T01:15:13.971Z,972.21
2022-11-13T01:16:13.994Z,972.22
2022-11-13T01:17:13.853Z,972.20
2022-11-13T01:18:13.769Z,972.15
2022-11-13T01:19:13.699Z,972.16
2022-11-13T01:20:13.635Z,972.14
2022-11-13T01:21:13.564Z,972.10
2022-11-13T01:22:13.496Z,972.06
2022-11-13T01:23:13.423Z,972.11
2022-11-13T01:24:13.360Z,972.06
2022-11-13T01:25:13.291Z,972.08
2022-11-13T01:26:13.223Z,972.10
2022-11-13T01:27:13.162Z,972.05
2022-11-13T01:28:13.083Z,972.05
2022-11-13T01:29:13.010Z,972.05
2022-11-13T01:30:12.949Z,972.07
2022-11-13T01:31:12.879Z,972.07
2022-11-13T01:32:12.895Z,972.05
2022-11-13T01:33:12.742Z,972.03
2022-11-13T01:34:12.673Z,972.03
2022-11-13T01:35:12.615Z,972.02
2022-11-13T01:36:12.537Z,971.99
2022-11-13T01:37:12.473Z,971.96
2022-11-13T01:38:12.396Z,971.95
2022-11-13T01:39:12.326Z,971.94
2022-11-13T01:40:12.262Z,971.88
2022-11-13T01:41:12.193Z,971.89
2022-11-13T01:42:12.122Z,971.88
2022-11-13T01:43:12.055Z,971.84
2022-11-13T01:44:11.988Z,971.82
2022-11-13T01:45:11.915Z,971.78
2022-11-13T01:46:11.856Z,971.74
2022-11-13T01:47:11.776Z,971.70
2022-11-13T01:48:11.799Z,971.72
2022-11-13T01:49:11.646Z,971.69
2022-11-13T01:50:11.576Z,971.73
2022-11-13T01:51:11.506Z,971.72
2022-11-13T01:52:11.438Z,971.74
2022-11-13T01:53:11.368Z,971.73
2022-11-13T01:54:11.305Z,971.74
2022-11-13T01:55:11.237Z,971.74
2022-11-13T01:56:11.163Z,971.73
2022-11-13T01:57:11.093Z,971.74
2022-11-13T01:58:11.030Z,971.69
2022-11-13T01:59:10.955Z,971.69
2022-11-13T02:00:10.892Z,971.68
2022-11-13T02:01:10.823Z,971.65
2022-11-13T02:02:10.821Z,971.61
2022-11-13T02:03:10.683Z,971.59
2022-11-13T02:04:10.693Z,971.60
2022-11-13T02:05:10.543Z,971.63
2022-11-13T02:06:10.477Z,971.62
2022-11-13T02:07:10.462Z,971.61
2022-11-13T02:08:10.341Z,971.62
2022-11-13T02:09:10.269Z,971.57
2022-11-13T02:10:10.201Z,971.57
2022-11-13T02:11:10.141Z,971.59
2022-11-13T02:12:10.073Z,971.60
2022-11-13T02:13:09.997Z,971.56
2022-11-13T02:14:09.937Z,971.53
2022-11-13T02:15:09.858Z,971.54
2022-11-13T02:16:09.791Z,971.56
2022-11-13T02:17:09.724Z,971.55
2022-11-13T02:18:09.654Z,971.53
2022-11-13T02:19:09.582Z,971.51
2022-11-13T02:20:09.598Z,971.48
2022-11-13T02:21:09.445Z,971.46
2022-11-13T02:22:09.387Z,971.48
2022-11-13T02:23:09.307Z,971.46
2022-11-13T02:24:09.243Z,971.47
2022-11-13T02:25:09.175Z,971.45
2022-11-13T02:26:09.107Z,971.38
2022-11-13T02:27:09.030Z,971.40
2022-11-13T02:28:08.969Z,971.32
2022-11-13T02:29:08.894Z,971.31
2022-11-13T02:30:10.668Z,971.32
2022-11-13T02:31:08.761Z,971.30
2022-11-13T02:32:08.688Z,971.31
2022-11-13T02:33:08.624Z,971.28
2022-11-13T02:34:08.552Z,971.28
2022-11-13T02:35:08.487Z,971.27
2022-11-13T02:36:08.502Z,971.27
2022-11-13T02:37:08.349Z,971.25
2022-11-13T02:38:08.277Z,971.29
2022-11-13T02:39:08.208Z,971.26
2022-11-13T02:40:08.144Z,971.28
2022-11-13T02:41:08.071Z,971.22
2022-11-13T02:42:08.008Z,971.23
2022-11-13T02:43:07.936Z,971.20
2022-11-13T02:44:07.867Z,971.18
2022-11-13T02:45:07.798Z,971.18
2022-11-13T02:46:07.729Z,971.17
2022-11-13T02:47:07.682Z,971.13
2022-11-13T02:48:07.589Z,971.17
2022-11-13T02:49:07.528Z,971.13
2022-11-13T02:50:07.457Z,971.16
2022-11-13T02:51:07.389Z,971.11
2022-11-13T02:52:07.404Z,971.11
2022-11-13T02:53:07.252Z,971.12
2022-11-13T02:54:07.185Z,971.09
2022-11-13T02:55:07.115Z,971.12
2022-11-13T02:56:07.041Z,971.13
2022-11-13T02:57:06.973Z,971.07
2022-11-13T02:58:06.907Z,971.06
2022-11-13T02:59:06.845Z,971.05
2022-11-13T03:00:10.698Z,971.06
2022-11-13T03:01:06.700Z,971.06
2022-11-13T03:02:06.680Z,971.06
2022-11-13T03:03:06.567Z,971.01
2022-11-13T03:04:06.499Z,970.98
2022-11-13T03:05:14.115Z,970.98
2022-11-13T03:06:06.358Z,971.00
2022-11-13T03:07:06.357Z,970.95
2022-11-13T03:08:06.305Z,970.95
2022-11-13T03:09:06.150Z,970.88
2022-11-13T03:10:06.076Z,970.92
2022-11-13T03:11:06.013Z,970.90
2022-11-13T03:12:05.940Z,970.87
2022-11-13T03:13:05.877Z,970.85
2022-11-13T03:14:05.807Z,970.89
2022-11-13T03:15:05.739Z,970.85
2022-11-13T03:16:05.665Z,970.86
2022-11-13T03:17:05.600Z,970.86
2022-11-13T03:18:05.532Z,970.85
2022-11-13T03:19:05.464Z,970.85
2022-11-13T03:20:05.392Z,970.82
2022-11-13T03:21:05.325Z,970.85
2022-11-13T03:22:05.256Z,970.84
2022-11-13T03:23:05.189Z,970.85
2022-11-13T03:24:05.198Z,970.85
2022-11-13T03:25:10.161Z,970.80
2022-11-13T03:26:04.984Z,970.81
2022-11-13T03:27:04.911Z,970.77
2022-11-13T03:28:04.848Z,970.78
2022-11-13T03:29:04.782Z,970.75
2022-11-13T03:30:04.704Z,970.75
2022-11-13T03:31:04.638Z,970.73
2022-11-13T03:32:04.572Z,970.72
2022-11-13T03:33:04.502Z,970.73
2022-11-13T03:34:04.427Z,970.71
2022-11-13T03:35:04.365Z,970.76
2022-11-13T03:36:04.297Z,970.74
2022-11-13T03:37:04.226Z,970.71
2022-11-13T03:38:04.164Z,970.72
2022-11-13T03:39:04.085Z,970.72
2022-11-13T03:40:04.097Z,970.68
2022-11-13T03:41:03.950Z,970.69
2022-11-13T03:42:03.878Z,970.65
2022-11-13T03:43:03.815Z,970.63
2022-11-13T03:44:03.744Z,970.58
2022-11-13T03:45:03.676Z,970.60
2022-11-13T03:46:03.606Z,970.57
2022-11-13T03:47:03.535Z,970.60
2022-11-13T03:48:03.467Z,970.57
2022-11-13T03:49:03.400Z,970.51
2022-11-13T03:50:03.334Z,970.54
2022-11-13T03:51:03.264Z,970.52
2022-11-13T03:52:03.192Z,970.51
2022-11-13T03:53:03.130Z,970.48
2022-11-13T03:54:03.056Z,970.44
2022-11-13T03:55:02.981Z,970.44
2022-11-13T03:56:02.995Z,970.40
2022-11-13T03:57:02.847Z,970.43
2022-11-13T03:58:02.780Z,970.44
2022-11-13T03:59:02.711Z,970.40
2022-11-13T04:00:02.642Z,970.32
2022-11-13T04:01:02.572Z,970.36
2022-11-13T04:02:02.626Z,970.36
2022-11-13T04:03:02.442Z,970.37
2022-11-13T04:04:02.379Z,970.41
2022-11-13T04:05:02.294Z,970.34
2022-11-13T04:06:02.234Z,970.34
2022-11-13T04:07:02.228Z,970.30
2022-11-13T04:08:02.094Z,970.31
2022-11-13T04:09:02.026Z,970.37
2022-11-13T04:10:01.954Z,970.32
2022-11-13T04:11:01.888Z,970.29
2022-11-13T04:12:01.896Z,970.22
2022-11-13T04:13:01.747Z,970.24
2022-11-13T04:14:01.675Z,970.24
2022-11-13T04:15:01.607Z,970.16
2022-11-13T04:16:01.546Z,970.17
2022-11-13T04:17:01.474Z,970.14
2022-11-13T04:18:01.397Z,970.11
2022-11-13T04:19:01.344Z,970.11
2022-11-13T04:20:01.261Z,970.12
2022-11-13T04:21:01.191Z,970.18
2022-11-13T04:22:01.128Z,970.14
2022-11-13T04:23:01.056Z,970.15
2022-11-13T04:24:00.989Z,970.22
2022-11-13T04:25:00.919Z,970.19
2022-11-13T04:26:00.851Z,970.17
2022-11-13T04:27:00.778Z,970.18
2022-11-13T04:28:00.792Z,970.15
2022-11-13T04:51:47.589Z,970.00
2022-11-13T04:52:47.371Z,969.95
2022-11-13T05:17:38.332Z,969.75
2022-11-13T05:18:38.301Z,969.77
2022-11-13T05:25:06.255Z,969.79
2022-11-13T05:26:06.184Z,969.82
2022-11-13T05:46:18.229Z,969.62
2022-11-13T05:47:18.060Z,969.61
2022-11-13T06:13:39.128Z,969.26
2022-11-13T06:14:38.861Z,969.28
2022-11-13T08:28:13.416Z,968.79
2022-11-13T08:29:11.809Z,968.76
2022-11-13T09:53:35.301Z,968.11
2022-11-13T09:54:35.267Z,968.07
2022-11-13T10:59:13.954Z,967.15
2022-11-13T11:00:13.763Z,967.08
2022-11-13T11:19:03.138Z,966.63
2022-11-13T11:20:02.943Z,966.57
2022-11-13T11:31:07.284Z,966.39
2022-11-13T11:32:07.098Z,966.40
2022-11-13T12:48:51.898Z,965.30
2022-11-13T12:49:51.695Z,965.32
2022-11-13T13:28:23.737Z,964.98
2022-11-13T13:29:23.603Z,965.03
2022-11-13T13:55:46.588Z,965.03
2022-11-13T13:56:46.424Z,965.01
2022-11-13T15:47:28.870Z,964.26
2022-11-13T15:48:28.810Z,964.29
2022-11-13T16:48:27.516Z,964.39
2022-11-13T16:49:27.390Z,964.42
2022-11-13T16:50:27.275Z,964.41
2022-11-13T16:51:27.204Z,964.46
2022-11-13T16:52:27.159Z,964.45
2022-11-13T16:53:27.262Z,964.42
2022-11-13T16:54:27.021Z,964.42
2022-11-13T16:55:26.938Z,964.38
2022-11-13T16:56:26.881Z,964.39
2022-11-13T16:57:26.829Z,964.37
2022-11-13T16:58:26.739Z,964.34
2022-11-13T16:59:26.687Z,964.32
2022-11-13T17:00:26.600Z,964.32
2022-11-13T17:01:26.644Z,964.30
2022-11-13T17:02:26.469Z,964.27
2022-11-13T17:03:26.830Z,964.29
2022-11-13T17:04:26.412Z,964.30
2022-11-13T17:05:26.282Z,964.26
2022-11-13T17:06:26.206Z,964.33
2022-11-13T17:07:26.158Z,964.26
2022-11-13T17:08:26.064Z,964.26
2022-11-13T17:09:26.005Z,964.23
2022-11-13T17:10:33.508Z,964.19
2022-11-13T17:11:25.864Z,964.16
2022-11-13T17:12:25.795Z,964.18
2022-11-13T17:13:25.774Z,964.21
2022-11-13T17:14:25.676Z,964.22
2022-11-13T17:15:25.591Z,964.20
2022-11-13T17:16:25.524Z,964.20
2022-11-13T17:17:25.451Z,964.16
2022-11-13T17:18:25.387Z,964.18
2022-11-13T17:19:25.328Z,964.16
2022-11-13T17:20:25.345Z,964.11
2022-11-13T17:21:25.185Z,964.16
2022-11-13T17:22:25.124Z,964.17
2022-11-13T17:23:25.051Z,964.18
2022-11-13T17:24:24.983Z,964.10
2022-11-13T17:25:24.911Z,964.10
2022-11-13T17:26:24.850Z,964.06
2022-11-13T17:27:24.785Z,964.05
2022-11-13T17:28:24.709Z,964.01
2022-11-13T17:29:24.641Z,964.02
2022-11-13T17:30:24.580Z,964.00
2022-11-13T17:31:24.514Z,964.03
2022-11-13T17:32:24.444Z,964.04
2022-11-13T17:33:24.375Z,964.01
2022-11-13T17:34:24.310Z,964.02
2022-11-13T17:35:24.243Z,964.03
2022-11-13T17:36:24.259Z,963.99
2022-11-13T17:37:25.455Z,964.05
2022-11-13T17:38:24.038Z,964.04
2022-11-13T17:39:23.977Z,964.00
2022-11-13T17:40:23.900Z,964.06
2022-11-13T17:41:23.829Z,964.06
2022-11-13T17:42:23.775Z,964.05
2022-11-13T17:43:23.698Z,964.06
2022-11-13T17:44:23.645Z,964.11
2022-11-13T17:45:23.558Z,964.10
2022-11-13T17:46:23.497Z,964.08
2022-11-13T17:47:23.425Z,964.10
2022-11-13T17:48:23.364Z,964.06
2022-11-13T17:49:23.295Z,964.00
2022-11-13T17:50:23.227Z,964.04
2022-11-13T17:51:23.157Z,964.07
2022-11-13T17:52:23.191Z,964.07
2022-11-13T17:53:23.019Z,964.06
2022-11-13T17:54:22.955Z,964.07
2022-11-13T17:55:22.883Z,964.03
2022-11-13T17:56:22.839Z,963.97
2022-11-13T17:57:26.712Z,963.98
2022-11-13T17:58:22.687Z,963.98
2022-11-13T17:59:22.620Z,963.92
2022-11-13T18:00:22.565Z,963.86
2022-11-13T18:01:22.553Z,963.85
2022-11-13T18:02:22.409Z,963.85
2022-11-13T18:03:22.339Z,963.85
2022-11-13T18:04:22.277Z,963.88
2022-11-13T18:05:22.209Z,963.90
2022-11-13T18:06:22.139Z,963.89
2022-11-13T18:07:22.152Z,963.93
2022-11-13T18:08:22.092Z,963.96
2022-11-13T18:09:21.949Z,963.93
2022-11-13T18:10:21.870Z,963.94
2022-11-13T18:11:21.799Z,963.99
2022-11-13T18:12:21.736Z,963.96
2022-11-13T18:13:21.667Z,963.97
2022-11-13T18:14:21.602Z,963.96
2022-11-13T18:15:21.536Z,963.98
2022-11-13T18:16:21.469Z,963.96
2022-11-13T18:17:21.395Z,963.97
2022-11-13T18:18:21.326Z,964.00
2022-11-13T18:19:21.264Z,964.00
2022-11-13T18:20:21.193Z,964.01
2022-11-13T18:21:23.248Z,964.02
2022-11-13T18:22:21.052Z,964.04
2022-11-13T18:23:20.985Z,964.04
2022-11-13T18:24:21.099Z,964.02
2022-11-13T18:25:20.849Z,964.05
2022-11-13T18:26:20.781Z,964.06
2022-11-13T18:27:20.716Z,964.13
2022-11-13T18:28:20.655Z,964.14
2022-11-13T18:29:20.589Z,964.10
2022-11-13T18:30:20.511Z,964.11
2022-11-13T18:31:20.453Z,964.07
2022-11-13T18:32:20.374Z,964.08
2022-11-13T18:33:20.307Z,964.03
2022-11-13T18:34:20.238Z,964.01
2022-11-13T18:35:20.175Z,963.98
2022-11-13T18:36:20.104Z,964.01
2022-11-13T18:37:20.035Z,964.02
2022-11-13T18:38:19.970Z,963.99
2022-11-13T18:39:19.930Z,964.05
2022-11-13T18:40:19.928Z,964.07
2022-11-13T18:41:19.766Z,964.09
2022-11-13T18:42:19.699Z,964.08
2022-11-13T18:43:19.626Z,964.11
2022-11-13T18:44:19.583Z,964.02
2022-11-13T18:45:19.491Z,964.04
2022-11-13T18:46:19.431Z,964.05
2022-11-13T18:47:19.356Z,964.02
2022-11-13T18:48:19.284Z,964.08
2022-11-13T18:49:19.216Z,964.12
2022-11-13T18:50:19.152Z,964.10
2022-11-13T18:51:19.082Z,964.12
2022-11-13T18:52:19.009Z,964.12
2022-11-13T18:53:18.955Z,964.15
2022-11-13T18:54:18.875Z,964.16
2022-11-13T18:55:18.817Z,964.14
2022-11-13T18:56:18.820Z,964.13
2022-11-13T18:57:18.674Z,964.12
2022-11-13T18:58:18.605Z,964.11
2022-11-13T18:59:18.540Z,964.11
2022-11-13T19:00:18.469Z,964.13
2022-11-13T19:01:22.222Z,964.15
2022-11-13T19:02:18.386Z,964.12
2022-11-13T19:03:18.270Z,964.13
2022-11-13T19:04:23.289Z,964.12
2022-11-13T19:05:18.154Z,964.09
2022-11-13T19:06:18.061Z,964.06
2022-11-13T19:07:18.041Z,964.09
2022-11-13T19:08:17.949Z,964.08
2022-11-13T19:09:17.853Z,964.08
2022-11-13T19:10:17.788Z,964.05
2022-11-13T19:11:17.717Z,964.04
2022-11-13T19:12:17.735Z,964.05
2022-11-13T19:13:17.578Z,964.08
2022-11-13T19:14:17.516Z,964.09
2022-11-13T19:15:17.447Z,964.09
2022-11-13T19:16:17.380Z,964.13
2022-11-13T19:17:17.326Z,964.15
2022-11-13T19:18:17.245Z,964.16
2022-11-13T19:19:17.201Z,964.16
2022-11-13T19:20:17.105Z,964.16
2022-11-13T19:21:17.038Z,964.16
2022-11-13T19:22:16.966Z,964.11
2022-11-13T19:23:16.901Z,964.13
2022-11-13T20:16:18.837Z,963.78
2022-11-13T20:17:18.677Z,963.78
2022-11-13T20:26:51.310Z,963.60
2022-11-13T20:27:51.209Z,963.63
2022-11-13T20:42:10.749Z,963.75
2022-11-13T20:43:10.553Z,963.66
2022-11-13T20:57:38.112Z,963.63
2022-11-13T20:58:33.151Z,963.59
2022-11-13T21:03:41.874Z,963.65
2022-11-13T21:04:41.761Z,963.70
2022-11-13T21:20:37.247Z,963.77
2022-11-13T21:21:37.137Z,963.75
2022-11-13T21:29:37.879Z,963.71
2022-11-13T21:30:37.713Z,963.61
2022-11-13T21:47:57.980Z,963.52
2022-11-13T21:48:57.837Z,963.53
2022-11-13T22:00:17.205Z,963.65
2022-11-13T22:01:17.126Z,963.65
2022-11-13T22:20:10.438Z,963.49
2022-11-13T22:21:10.284Z,963.44
2022-11-13T22:31:13.486Z,963.31
2022-11-13T22:32:05.541Z,963.31
2022-11-13T22:49:33.073Z,963.15
2022-11-13T22:50:32.982Z,963.16
